Time;durP1;ratioP1;P1;durP2;ratioP2;P2;SDS_P1;SDS_P2;PMS_P1;PMS_P2;Temp;Humidity;BMP_temperature;BMP_pressure;BME280_temperature;BME280_humidity;BME280_pressure;Samples;Min_cycle;Max_cycle;Signal;HPM_P1;HPM_P2
2021/08/02 00:01:48;;;;;;;16.15;14.45;;;;;;;24.43;78.36;98963.48;1689151;84;21657;-70
2021/08/02 00:04:17;;;;;;;18.48;15.50;;;;;;;24.50;78.19;98952.66;1689269;84;21027;-72
2021/08/02 00:06:52;;;;;;;19.82;15.70;;;;;;;24.43;78.82;98954.44;1674218;84;21555;-71
2021/08/02 00:09:25;;;;;;;18.35;15.45;;;;;;;24.27;79.74;98959.39;1674025;84;22324;-71
2021/08/02 00:12:00;;;;;;;20.75;15.53;;;;;;;24.12;80.84;98963.54;1711528;83;21541;-73
2021/08/02 00:14:28;;;;;;;17.40;15.70;;;;;;;24.04;81.54;98965.30;1701570;84;20908;-69
2021/08/02 00:16:55;;;;;;;18.95;16.48;;;;;;;24.00;82.13;98968.55;1685039;83;21079;-71
2021/08/02 00:19:23;;;;;;;19.23;15.93;;;;;;;23.95;82.58;98964.70;1673559;85;20959;-70
2021/08/02 00:21:50;;;;;;;23.47;15.28;;;;;;;23.96;82.59;98977.86;1674209;84;22142;-69
2021/08/02 00:24:18;;;;;;;18.75;16.90;;;;;;;23.96;82.77;98985.53;1668567;84;21042;-67
2021/08/02 00:26:44;;;;;;;22.13;17.32;;;;;;;23.97;82.82;98992.63;1680112;83;21027;-72
2021/08/02 00:29:12;;;;;;;18.67;15.45;;;;;;;23.95;82.97;98994.91;1689505;84;21547;-69
2021/08/02 00:31:39;;;;;;;22.75;17.10;;;;;;;23.98;82.81;98992.82;1731134;82;21568;-72
2021/08/02 00:34:07;;;;;;;22.35;17.62;;;;;;;23.97;83.09;98989.08;1711837;82;21264;-70
2021/08/02 00:36:47;;;;;;;24.98;18.40;;;;;;;23.98;83.01;98984.58;1673316;85;21604;-70
2021/08/02 00:39:31;;;;;;;20.70;18.17;;;;;;;24.01;82.95;98977.59;1655324;85;21054;-70
2021/08/02 00:42:17;;;;;;;29.45;18.35;;;;;;;23.98;83.08;98968.70;1684554;85;20971;-70
2021/08/02 00:45:14;;;;;;;32.15;20.52;;;;;;;24.00;82.89;98967.18;1683211;85;21007;-71
2021/08/02 00:48:01;;;;;;;31.77;24.05;;;;;;;23.99;82.91;98964.20;1666876;85;21102;-74
2021/08/02 00:50:35;;;;;;;39.88;20.82;;;;;;;23.99;83.12;98966.16;1688642;83;21508;-75
2021/08/02 00:53:13;;;;;;;24.45;16.25;;;;;;;24.01;82.74;98953.67;1713423;83;21028;-74
2021/08/02 00:55:43;;;;;;;23.35;17.10;;;;;;;24.07;81.97;98948.13;1712626;83;21000;-73
2021/08/02 00:58:14;;;;;;;19.87;17.10;;;;;;;24.10;82.06;98943.28;1713096;83;21050;-73
2021/08/02 01:00:43;;;;;;;17.62;15.93;;;;;;;24.13;82.17;98937.63;1683603;85;21099;-73
2021/08/02 01:03:12;;;;;;;18.77;15.18;;;;;;;24.17;82.13;98948.19;1649796;85;21496;-72
2021/08/02 01:05:40;;;;;;;24.47;17.30;;;;;;;24.23;82.23;98948.11;1684476;84;20967;-71
2021/08/02 01:08:14;;;;;;;21.70;18.42;;;;;;;24.28;81.79;98950.58;1674521;85;21001;-70
2021/08/02 01:10:45;;;;;;;20.62;16.75;;;;;;;24.29;81.71;98936.48;1655578;86;21027;-70
2021/08/02 01:13:16;;;;;;;17.48;15.50;;;;;;;24.32;81.51;98926.71;1639377;86;21068;-69
2021/08/02 01:15:48;;;;;;;19.10;16.77;;;;;;;24.36;81.43;98930.36;1711880;83;21515;-70
2021/08/02 01:18:18;;;;;;;21.62;16.87;;;;;;;24.39;81.17;98926.87;1682929;85;20969;-71
2021/08/02 01:20:48;;;;;;;17.70;15.55;;;;;;;24.44;80.95;98918.92;1660654;85;20951;-70
2021/08/02 01:23:16;;;;;;;18.05;15.63;;;;;;;24.45;80.82;98919.95;1661613;84;21026;-70
2021/08/02 01:25:50;;;;;;;16.57;14.90;;;;;;;24.51;80.63;98916.34;1644934;87;21121;-74
2021/08/02 01:28:22;;;;;;;19.37;14.87;;;;;;;24.51;80.36;98910.84;1698723;83;21526;-72
2021/08/02 01:30:55;;;;;;;15.60;13.90;;;;;;;24.42;80.55;98902.78;1686035;84;20979;-74
2021/08/02 01:33:31;;;;;;;19.32;15.72;;;;;;;24.36;80.87;98897.38;1701381;83;21027;-72
2021/08/02 01:36:05;;;;;;;19.25;15.50;;;;;;;24.36;81.15;98899.33;1696337;83;21071;-71
2021/08/02 01:38:35;;;;;;;18.95;16.70;;;;;;;24.39;81.18;98898.59;1679459;83;21564;-72
2021/08/02 01:41:05;;;;;;;21.80;19.15;;;;;;;24.32;81.29;98897.28;1629308;85;21099;-73
2021/08/02 01:43:35;;;;;;;20.48;17.35;;;;;;;24.19;81.73;98884.03;1646934;86;21012;-72
2021/08/02 01:46:06;;;;;;;19.75;17.75;;;;;;;24.15;82.14;98886.68;1670380;85;21046;-73
2021/08/02 01:48:58;;;;;;;22.85;20.12;;;;;;;24.18;82.23;98892.84;1664810;86;21023;-73
2021/08/02 01:51:47;;;;;;;22.70;20.35;;;;;;;24.14;82.17;98893.32;1665963;86;21162;-73
2021/08/02 01:54:53;;;;;;;22.40;18.07;;;;;;;24.06;82.35;98899.82;1666588;86;21091;-74
2021/08/02 01:57:33;;;;;;;20.77;18.62;;;;;;;24.02;82.61;98901.70;1662742;86;20964;-73
2021/08/02 02:00:11;;;;;;;23.00;19.25;;;;;;;23.66;85.00;98900.05;1654759;86;21103;-72
2021/08/02 02:03:06;;;;;;;21.27;18.00;;;;;;;23.42;86.48;98896.89;1639558;86;21098;-71
2021/08/02 02:05:37;;;;;;;22.67;20.27;;;;;;;23.25;87.86;98897.25;1641474;86;21851;-72
2021/08/02 02:08:29;;;;;;;21.40;19.25;;;;;;;23.11;88.90;98883.73;1640458;86;21046;-72
2021/08/02 02:11:00;;;;;;;24.65;20.17;;;;;;;23.03;89.90;98884.11;1639416;87;21508;-72
2021/08/02 02:13:41;;;;;;;25.75;20.15;;;;;;;22.96;90.82;98889.41;1638193;87;21051;-72
2021/08/02 02:16:08;;;;;;;20.95;18.80;;;;;;;22.94;90.84;98890.33;1640358;86;21100;-72
2021/08/02 02:18:37;;;;;;;35.63;19.20;;;;;;;22.92;90.86;98878.93;1642151;86;21193;-74
2021/08/02 02:21:04;;;;;;;22.90;20.48;;;;;;;22.94;90.57;98877.98;1626359;86;21064;-74
2021/08/02 02:23:31;;;;;;;26.42;20.08;;;;;;;22.91;91.28;98871.84;1666388;86;21063;-73
2021/08/02 02:25:58;;;;;;;26.05;21.80;;;;;;;22.84;91.44;98868.33;1666289;86;20991;-73
2021/08/02 02:28:25;;;;;;;26.10;21.27;;;;;;;22.77;92.10;98872.83;1663542;86;21007;-72
2021/08/02 02:30:53;;;;;;;22.75;20.37;;;;;;;22.74;92.56;98863.92;1640258;87;21272;-73
2021/08/02 02:33:20;;;;;;;21.80;19.52;;;;;;;22.79;92.46;98852.70;1641445;86;21050;-73
2021/08/02 02:35:47;;;;;;;23.75;20.35;;;;;;;22.75;92.70;98853.98;1655527;86;21558;-73
2021/08/02 02:38:15;;;;;;;29.02;19.87;;;;;;;22.75;92.90;98853.98;1665333;86;21087;-73
2021/08/02 02:40:44;;;;;;;26.75;19.20;;;;;;;22.85;91.01;98844.45;1654819;84;21066;-74
2021/08/02 02:43:12;;;;;;;22.93;18.67;;;;;;;22.92;90.52;98839.97;1662129;84;21143;-74
2021/08/02 02:45:41;;;;;;;22.13;19.82;;;;;;;22.96;90.57;98842.80;1657609;85;21528;-75
2021/08/02 02:48:09;;;;;;;24.35;21.80;;;;;;;22.98;90.94;98850.87;1657319;85;20988;-76
2021/08/02 02:50:35;;;;;;;21.97;19.52;;;;;;;23.00;91.00;98858.77;1683130;85;21524;-74
2021/08/02 02:53:03;;;;;;;24.47;19.37;;;;;;;23.01;90.67;98874.08;1679939;84;21038;-74
2021/08/02 02:55:32;;;;;;;21.62;16.93;;;;;;;23.00;90.40;98877.96;1672689;85;21162;-75
2021/08/02 02:57:59;;;;;;;25.00;18.42;;;;;;;23.03;90.21;98884.91;1661271;84;21522;-74
2021/08/02 03:00:27;;;;;;;24.80;18.80;;;;;;;23.02;90.34;98896.25;1674779;84;21066;-72
2021/08/02 03:02:55;;;;;;;21.07;17.15;;;;;;;23.06;90.36;98908.11;1671210;85;21044;-72
2021/08/02 03:05:23;;;;;;;21.33;18.67;;;;;;;23.11;90.05;98913.91;1675093;84;21418;-72
2021/08/02 03:07:59;;;;;;;21.52;19.37;;;;;;;23.10;89.81;98917.22;1700854;83;21466;-74
2021/08/02 03:10:28;;;;;;;27.07;19.15;;;;;;;23.13;89.82;98911.59;1681746;83;20948;-72
2021/08/02 03:12:57;;;;;;;29.20;19.62;;;;;;;23.19;89.69;98913.73;1684188;83;21481;-73
2021/08/02 03:15:24;;;;;;;21.85;18.62;;;;;;;23.25;89.30;98912.34;1681855;85;21388;-73
2021/08/02 03:17:51;;;;;;;22.27;18.32;;;;;;;23.29;88.94;98913.22;1672924;85;21524;-73
2021/08/02 03:20:18;;;;;;;27.15;18.30;;;;;;;23.31;88.50;98910.91;1695116;84;21082;-74
2021/08/02 03:22:50;;;;;;;21.07;18.77;;;;;;;23.27;88.47;98912.77;1672652;85;21499;-71
2021/08/02 03:25:34;;;;;;;21.15;18.67;;;;;;;23.27;88.65;98903.16;1672913;84;21015;-72
2021/08/02 03:28:26;;;;;;;25.12;18.50;;;;;;;23.29;88.43;98906.94;1695594;84;21068;-70
2021/08/02 03:30:56;;;;;;;20.35;18.40;;;;;;;23.31;88.39;98906.79;1674596;84;21595;-71
2021/08/02 03:33:30;;;;;;;23.30;17.92;;;;;;;23.39;87.82;98907.22;1672503;85;21149;-71
2021/08/02 03:35:56;;;;;;;22.65;17.75;;;;;;;23.39;87.63;98911.91;1693378;84;20972;-72
2021/08/02 03:38:23;;;;;;;22.40;17.75;;;;;;;23.36;87.74;98925.73;1700485;84;21623;-72
2021/08/02 03:40:49;;;;;;;20.32;18.25;;;;;;;23.42;87.78;98912.55;1683247;85;21406;-72
2021/08/02 03:43:16;;;;;;;17.50;15.85;;;;;;;23.51;87.31;98919.27;1680807;85;21515;-73
2021/08/02 03:45:43;;;;;;;18.05;16.02;;;;;;;23.60;86.76;98913.02;1657535;85;21875;-74
2021/08/02 03:48:10;;;;;;;21.50;18.00;;;;;;;23.60;86.40;98915.19;1644926;85;20963;-72
2021/08/02 03:50:38;;;;;;;21.45;16.75;;;;;;;23.57;86.31;98928.84;1676139;84;21031;-72
2021/08/02 03:53:05;;;;;;;20.75;18.25;;;;;;;23.57;86.45;98929.64;1668800;86;21604;-73
2021/08/02 03:55:32;;;;;;;24.32;17.87;;;;;;;23.62;86.18;98934.06;1657759;85;21134;-72
2021/08/02 03:57:58;;;;;;;22.82;15.78;;;;;;;23.67;85.97;98935.98;1641069;85;21559;-71
2021/08/02 04:00:25;;;;;;;17.95;16.02;;;;;;;23.75;85.59;98937.73;1697636;84;21516;-72
2021/08/02 04:02:53;;;;;;;22.40;16.10;;;;;;;23.86;85.12;98939.38;1644216;86;21067;-72
2021/08/02 04:05:20;;;;;;;20.80;16.93;;;;;;;23.88;84.61;98937.08;1691675;83;20987;-73
2021/08/02 04:07:47;;;;;;;17.77;16.05;;;;;;;23.88;84.60;98936.48;1681773;84;21078;-72
2021/08/02 04:10:14;;;;;;;21.45;18.60;;;;;;;23.90;84.44;98919.08;1664216;85;21206;-73
2021/08/02 04:12:41;;;;;;;20.35;18.17;;;;;;;23.79;84.93;98906.23;1687765;84;21048;-72
2021/08/02 04:15:10;;;;;;;17.70;15.90;;;;;;;23.72;85.43;98901.95;1698625;84;21521;-70
2021/08/02 04:17:36;;;;;;;20.43;16.32;;;;;;;23.66;85.87;98889.07;1683731;85;21054;-71
2021/08/02 04:20:05;;;;;;;18.32;16.40;;;;;;;23.66;86.19;98892.39;1683826;85;21527;-72
2021/08/02 04:22:32;;;;;;;21.90;17.20;;;;;;;23.65;86.47;98886.67;1675477;85;22172;-70
2021/08/02 04:25:00;;;;;;;16.35;14.63;;;;;;;23.71;86.47;98886.06;1645675;86;21524;-72
2021/08/02 04:27:26;;;;;;;22.55;17.27;;;;;;;23.84;86.24;98884.78;1656029;86;21558;-71
2021/08/02 04:29:54;;;;;;;19.80;17.67;;;;;;;23.92;85.93;98881.64;1656145;86;21081;-71
2021/08/02 04:32:21;;;;;;;17.50;15.85;;;;;;;24.02;85.65;98880.30;1667214;85;21507;-71
2021/08/02 04:34:47;;;;;;;23.22;18.87;;;;;;;24.09;85.28;98874.37;1672305;84;21073;-71
2021/08/02 04:37:14;;;;;;;25.40;18.20;;;;;;;24.13;85.03;98870.31;1670312;85;21620;-71
2021/08/02 04:39:40;;;;;;;23.10;19.23;;;;;;;24.18;84.76;98870.06;1672006;85;21032;-72
2021/08/02 04:42:08;;;;;;;18.55;16.75;;;;;;;24.17;84.66;98858.27;1682788;84;20964;-70
2021/08/02 04:44:34;;;;;;;29.15;18.60;;;;;;;24.18;84.80;98875.56;1700965;84;21402;-73
2021/08/02 04:47:01;;;;;;;32.85;18.98;;;;;;;24.19;84.89;98860.67;1700417;83;21792;-77
2021/08/02 04:49:28;;;;;;;30.97;19.37;;;;;;;24.21;84.83;98864.66;1686465;84;20964;-70
2021/08/02 04:51:54;;;;;;;21.45;19.25;;;;;;;24.24;84.80;98870.80;1692080;83;21295;-72
2021/08/02 04:54:22;;;;;;;23.25;17.75;;;;;;;24.26;84.71;98872.63;1672730;85;20929;-71
2021/08/02 04:56:49;;;;;;;20.57;17.42;;;;;;;24.28;84.64;98856.56;1681931;84;21063;-71
2021/08/02 04:59:15;;;;;;;21.95;19.02;;;;;;;24.33;84.45;98865.89;1700733;83;21091;-72
2021/08/02 05:01:43;;;;;;;20.57;18.07;;;;;;;24.37;84.22;98875.58;1686466;84;20956;-71
2021/08/02 05:04:10;;;;;;;20.23;18.15;;;;;;;24.39;84.25;98878.78;1700905;83;20988;-70
2021/08/02 05:06:36;;;;;;;23.35;20.72;;;;;;;24.39;84.56;98881.52;1700493;83;21564;-72
2021/08/02 05:09:04;;;;;;;21.97;19.02;;;;;;;24.40;84.66;98883.13;1700828;83;21050;-72
2021/08/02 05:11:32;;;;;;;23.32;18.75;;;;;;;24.40;84.78;98870.75;1695101;84;21098;-72
2021/08/02 05:14:00;;;;;;;20.90;18.77;;;;;;;24.40;84.63;98854.83;1700078;83;20893;-72
2021/08/02 05:16:26;;;;;;;21.05;18.75;;;;;;;24.43;84.29;98856.27;1686403;84;21035;-72
2021/08/02 05:18:54;;;;;;;19.67;17.73;;;;;;;24.47;84.43;98859.09;1700737;83;21014;-73
2021/08/02 05:21:20;;;;;;;19.52;17.40;;;;;;;24.57;83.97;98854.38;1700991;83;21024;-72
2021/08/02 05:23:47;;;;;;;20.90;17.82;;;;;;;24.57;83.55;98845.56;1700942;83;21215;-72
2021/08/02 05:26:14;;;;;;;24.18;18.25;;;;;;;24.65;83.37;98836.89;1700227;83;21124;-75
2021/08/02 05:28:42;;;;;;;24.12;18.45;;;;;;;24.75;82.97;98830.77;1682765;84;21023;-72
2021/08/02 05:31:08;;;;;;;24.07;18.77;;;;;;;24.83;82.48;98825.63;1677835;84;21086;-71
2021/08/02 05:33:35;;;;;;;19.60;17.55;;;;;;;24.85;82.03;98821.91;1685548;83;21062;-72
2021/08/02 05:36:03;;;;;;;17.95;14.65;;;;;;;24.87;81.78;98822.39;1686177;84;21137;-72
2021/08/02 05:38:31;;;;;;;20.23;17.65;;;;;;;24.92;81.43;98816.59;1700349;83;20983;-73
2021/08/02 05:40:58;;;;;;;22.98;18.70;;;;;;;24.95;80.99;98815.84;1686314;83;21016;-72
2021/08/02 05:43:25;;;;;;;21.42;17.52;;;;;;;24.99;80.91;98809.81;1679666;84;20987;-71
2021/08/02 05:45:52;;;;;;;19.55;16.02;;;;;;;25.06;80.27;98798.95;1691146;84;21536;-72
2021/08/02 05:48:18;;;;;;;20.70;17.55;;;;;;;25.14;79.70;98792.97;1670347;84;21184;-73
2021/08/02 05:50:45;;;;;;;18.15;16.40;;;;;;;25.18;79.49;98808.38;1695969;84;21663;-73
2021/08/02 05:53:11;;;;;;;18.10;16.32;;;;;;;25.26;79.20;98814.81;1681128;84;21019;-72
2021/08/02 05:55:39;;;;;;;16.82;15.15;;;;;;;25.30;79.02;98807.40;1691640;84;21587;-70
2021/08/02 05:58:05;;;;;;;19.02;16.40;;;;;;;25.37;78.74;98797.09;1687517;84;20987;-71
2021/08/02 06:00:31;;;;;;;22.50;17.85;;;;;;;25.42;78.43;98800.91;1676187;84;21050;-74
2021/08/02 06:02:58;;;;;;;23.87;17.60;;;;;;;25.41;78.25;98807.00;1676176;84;21515;-71
2021/08/02 06:05:24;;;;;;;28.77;16.35;;;;;;;25.42;78.10;98803.05;1708183;83;21043;-72
2021/08/02 06:07:51;;;;;;;17.62;15.88;;;;;;;25.48;78.00;98793.91;1719591;82;20985;-71
2021/08/02 06:10:17;;;;;;;16.70;14.75;;;;;;;25.55;77.36;98783.84;1673343;85;21049;-72
2021/08/02 06:12:44;;;;;;;26.57;18.82;;;;;;;25.60;77.34;98779.39;1647743;86;21393;-75
2021/08/02 06:15:11;;;;;;;21.82;19.57;;;;;;;25.67;77.27;98782.80;1670425;85;21043;-72
2021/08/02 06:17:38;;;;;;;21.60;18.12;;;;;;;25.70;77.29;98777.15;1670277;85;21023;-72
2021/08/02 06:20:06;;;;;;;22.45;15.43;;;;;;;25.76;77.18;98771.51;1725365;82;21054;-72
2021/08/02 06:22:33;;;;;;;19.35;16.45;;;;;;;25.83;77.21;98772.41;1719654;82;21499;-75
2021/08/02 06:25:01;;;;;;;20.68;17.25;;;;;;;25.96;76.72;98774.34;1733796;82;21019;-72
2021/08/02 06:27:30;;;;;;;21.40;16.45;;;;;;;26.07;76.07;98767.02;1723531;82;21544;-72
2021/08/02 06:29:59;;;;;;;19.12;17.20;;;;;;;26.17;75.65;98757.28;1723095;82;21474;-73
2021/08/02 06:32:26;;;;;;;18.32;13.88;;;;;;;26.24;75.19;98760.94;1733420;82;21018;-71
2021/08/02 06:34:53;;;;;;;17.12;14.70;;;;;;;26.29;74.43;98766.12;1733729;82;21023;-72
2021/08/02 06:37:19;;;;;;;19.32;14.60;;;;;;;26.39;73.91;98767.41;1733531;82;21161;-72
2021/08/02 06:39:46;;;;;;;15.30;13.70;;;;;;;26.46;73.21;98769.67;1733267;82;21509;-72
2021/08/02 06:42:14;;;;;;;17.17;11.88;;;;;;;26.51;72.78;98767.16;1719638;82;20983;-72
2021/08/02 06:44:41;;;;;;;14.30;12.82;;;;;;;26.56;71.58;98775.67;1689542;83;21019;-72
2021/08/02 06:47:09;;;;;;;14.83;13.10;;;;;;;26.61;70.70;98776.13;1675168;84;21059;-77
2021/08/02 06:49:35;;;;;;;15.03;12.82;;;;;;;26.64;70.19;98767.67;1686800;84;21200;-71
2021/08/02 06:52:02;;;;;;;14.33;12.53;;;;;;;26.66;69.81;98760.62;1664898;85;21095;-71
2021/08/02 06:54:29;;;;;;;14.13;12.63;;;;;;;26.72;69.68;98765.98;1664989;85;21048;-72
2021/08/02 06:56:56;;;;;;;14.63;12.07;;;;;;;26.77;69.70;98762.08;1686824;84;21054;-72
2021/08/02 06:59:22;;;;;;;12.50;11.25;;;;;;;26.79;69.36;98767.44;1664782;85;21047;-72
2021/08/02 07:01:49;;;;;;;13.93;11.53;;;;;;;26.75;69.13;98761.68;1687854;84;21491;-73
2021/08/02 07:04:16;;;;;;;13.13;10.95;;;;;;;26.79;69.06;98764.67;1675199;85;21054;-73
2021/08/02 07:06:44;;;;;;;13.58;12.28;;;;;;;26.84;68.85;98760.78;1709925;83;20960;-73
2021/08/02 07:09:11;;;;;;;15.65;11.48;;;;;;;26.89;68.58;98755.73;1703501;83;21059;-73
2021/08/02 07:11:38;;;;;;;16.17;12.43;;;;;;;26.93;68.51;98752.20;1688851;84;21047;-73
2021/08/02 07:14:05;;;;;;;14.80;12.07;;;;;;;26.98;68.58;98751.85;1672922;84;21226;-73
2021/08/02 07:16:31;;;;;;;14.73;12.00;;;;;;;26.98;68.23;98760.13;1667146;85;21104;-72
2021/08/02 07:18:58;;;;;;;20.57;11.55;;;;;;;27.02;67.97;98749.91;1689344;85;21004;-73
2021/08/02 07:21:25;;;;;;;13.98;11.45;;;;;;;27.05;67.81;98747.17;1668186;84;21043;-73
2021/08/02 07:23:52;;;;;;;14.58;13.03;;;;;;;27.11;67.38;98758.66;1689055;84;21060;-72
2021/08/02 07:26:19;;;;;;;13.45;12.10;;;;;;;27.15;67.30;98765.79;1703446;83;21939;-72
2021/08/02 07:28:46;;;;;;;13.60;11.45;;;;;;;27.20;67.11;98759.13;1702164;84;20999;-73
2021/08/02 07:31:15;;;;;;;14.55;11.48;;;;;;;27.30;66.59;98752.89;1703220;83;21008;-72
2021/08/02 07:33:42;;;;;;;12.82;11.65;;;;;;;27.40;66.42;98764.60;1703088;83;21086;-71
2021/08/02 07:36:09;;;;;;;12.82;11.22;;;;;;;27.51;66.10;98768.27;1703051;84;21067;-74
2021/08/02 07:38:36;;;;;;;15.85;12.07;;;;;;;27.62;65.13;98763.61;1697019;84;21058;-72
2021/08/02 07:41:02;;;;;;;18.07;13.15;;;;;;;27.75;64.65;98765.45;1703375;83;21023;-72
2021/08/02 07:43:29;;;;;;;14.03;12.58;;;;;;;27.87;64.23;98769.25;1703138;83;21525;-74
2021/08/02 07:45:55;;;;;;;16.65;10.90;;;;;;;27.93;63.43;98782.11;1703256;83;21306;-72
2021/08/02 07:48:23;;;;;;;14.65;11.30;;;;;;;28.00;63.10;98779.39;1703207;84;21524;-73
2021/08/02 07:50:49;;;;;;;13.32;10.53;;;;;;;28.00;63.25;98776.63;1703627;83;22235;-72
2021/08/02 07:53:16;;;;;;;13.83;11.73;;;;;;;28.04;63.05;98774.67;1688559;83;20959;-73
2021/08/02 07:55:42;;;;;;;15.55;12.75;;;;;;;28.07;61.97;98779.41;1686753;84;21193;-73
2021/08/02 07:58:09;;;;;;;20.43;12.10;;;;;;;28.14;61.37;98783.63;1703318;83;20952;-72
2021/08/02 08:00:36;;;;;;;17.65;10.32;;;;;;;28.20;60.33;98785.44;1703529;83;21052;-73
2021/08/02 08:03:03;;;;;;;15.38;12.33;;;;;;;28.29;59.57;98798.31;1703386;84;21151;-75
2021/08/02 08:05:29;;;;;;;19.95;11.50;;;;;;;28.37;59.08;98786.08;1703345;83;20984;-71
2021/08/02 08:07:58;;;;;;;19.40;11.57;;;;;;;28.40;59.25;98779.76;1703499;83;20964;-72
2021/08/02 08:10:27;;;;;;;11.55;10.35;;;;;;;28.42;58.89;98781.55;1687537;84;21497;-73
2021/08/02 08:12:54;;;;;;;17.57;10.45;;;;;;;28.43;58.36;98783.94;1702541;84;21032;-74
2021/08/02 08:15:22;;;;;;;11.73;9.45;;;;;;;28.43;57.55;98782.55;1703146;84;23304;-71
2021/08/02 08:17:50;;;;;;;19.07;10.63;;;;;;;28.47;55.57;98771.49;1703467;83;21031;-72
2021/08/02 08:20:20;;;;;;;15.15;10.55;;;;;;;28.51;56.08;98770.31;1703428;83;21276;-72
2021/08/02 08:22:47;;;;;;;11.73;10.08;;;;;;;28.60;55.44;98787.33;1688868;84;21237;-71
2021/08/02 08:25:13;;;;;;;11.83;9.63;;;;;;;28.63;56.04;98783.00;1703126;83;20988;-72
2021/08/02 08:27:40;;;;;;;13.98;10.35;;;;;;;28.66;56.15;98786.36;1688671;84;21060;-72
2021/08/02 08:30:08;;;;;;;13.55;10.40;;;;;;;28.74;55.94;98809.33;1683558;83;20952;-73
2021/08/02 08:32:34;;;;;;;10.72;9.70;;;;;;;28.80;54.25;98801.64;1675369;84;20951;-72
2021/08/02 08:35:01;;;;;;;9.83;8.25;;;;;;;28.89;52.87;98792.95;1672119;85;21557;-73
2021/08/02 08:37:27;;;;;;;9.60;8.48;;;;;;;28.97;52.35;98813.32;1672203;85;20999;-73
2021/08/02 08:39:53;;;;;;;11.40;8.98;;;;;;;29.05;52.00;98808.59;1648841;85;21070;-71
2021/08/02 08:42:20;;;;;;;22.37;9.88;;;;;;;29.09;52.08;98777.55;1671605;84;21496;-72
2021/08/02 08:44:48;;;;;;;10.15;9.13;;;;;;;29.16;51.79;98797.53;1671387;85;20995;-72
2021/08/02 08:47:14;;;;;;;14.45;10.98;;;;;;;29.21;51.59;98788.20;1680137;84;21063;-73
2021/08/02 08:49:43;;;;;;;21.15;9.38;;;;;;;29.29;51.29;98793.97;1677744;84;20933;-73
2021/08/02 08:52:09;;;;;;;13.58;9.25;;;;;;;29.38;50.83;98786.07;1695077;84;21166;-74
2021/08/02 08:54:37;;;;;;;9.30;8.33;;;;;;;29.51;50.63;98805.84;1679290;84;21142;-73
2021/08/02 08:57:07;;;;;;;11.33;9.18;;;;;;;29.56;49.01;98791.58;1687930;84;21544;-73
2021/08/02 08:59:47;;;;;;;10.82;7.70;;;;;;;29.66;48.75;98796.91;1687975;84;21063;-73
2021/08/02 09:02:14;;;;;;;18.67;7.35;;;;;;;29.77;46.76;98799.87;1656701;85;21582;-73
2021/08/02 09:04:41;;;;;;;8.75;6.87;;;;;;;29.87;46.99;98799.05;1679390;84;21077;-73
2021/08/02 09:07:10;;;;;;;9.78;6.37;;;;;;;29.95;46.28;98805.39;1662861;85;21000;-74
2021/08/02 09:09:37;;;;;;;12.58;6.35;;;;;;;29.98;45.41;98811.52;1687729;84;20999;-73
2021/08/02 09:12:14;;;;;;;16.23;7.20;;;;;;;29.97;45.26;98798.86;1688114;84;21466;-73
2021/08/02 09:14:53;;;;;;;15.88;7.87;;;;;;;29.97;44.43;98801.63;1687650;84;21038;-72
2021/08/02 09:17:34;;;;;;;11.95;7.25;;;;;;;30.03;44.63;98800.00;1702192;82;21061;-73
2021/08/02 09:20:04;;;;;;;11.75;7.10;;;;;;;30.10;44.59;98793.66;1692528;83;20936;-73
2021/08/02 09:22:36;;;;;;;13.90;6.80;;;;;;;30.16;44.21;98798.98;1686095;84;21216;-73
2021/08/02 09:25:07;;;;;;;12.00;6.05;;;;;;;30.22;44.05;98787.65;1664017;85;21004;-73
2021/08/02 09:27:33;;;;;;;9.15;6.28;;;;;;;30.28;44.20;98786.05;1685870;85;21008;-72
2021/08/02 09:30:13;;;;;;;18.48;6.87;;;;;;;30.37;44.36;98793.92;1679947;84;21210;-70
2021/08/02 09:32:58;;;;;;;12.63;6.35;;;;;;;30.50;43.34;98797.28;1678419;83;21047;-73
2021/08/02 09:35:41;;;;;;;11.88;6.90;;;;;;;30.61;43.02;98795.81;1702590;83;21060;-74
2021/08/02 09:38:10;;;;;;;13.47;6.43;;;;;;;30.66;42.91;98803.72;1701884;83;21052;-71
2021/08/02 09:40:53;;;;;;;11.30;6.62;;;;;;;30.73;43.16;98786.43;1685111;84;21342;-73
2021/08/02 09:43:24;;;;;;;23.83;7.78;;;;;;;30.82;43.26;98783.20;1702944;83;22286;-72
2021/08/02 09:45:56;;;;;;;14.65;7.15;;;;;;;30.97;43.05;98805.51;1703102;83;20932;-73
2021/08/02 09:48:43;;;;;;;11.15;6.05;;;;;;;31.08;42.97;98817.34;1691763;84;21122;-73
2021/08/02 09:51:14;;;;;;;19.65;7.33;;;;;;;31.17;42.33;98817.67;1696273;84;20979;-73
2021/08/02 09:53:44;;;;;;;11.88;6.50;;;;;;;31.20;42.26;98818.06;1683537;84;21052;-73
2021/08/02 09:56:16;;;;;;;16.20;6.05;;;;;;;31.18;42.59;98801.20;1687282;84;21150;-72
2021/08/02 09:58:45;;;;;;;9.00;7.40;;;;;;;31.19;42.72;98800.59;1667554;84;20999;-73
2021/08/02 10:01:18;;;;;;;14.00;8.70;;;;;;;31.13;43.07;98795.28;1703484;83;20944;-72
2021/08/02 10:03:45;;;;;;;;;;;;;;;31.11;43.26;98806.82;1705573;83;21016;-76
2021/08/02 10:06:15;;;;;;;13.70;7.47;;;;;;;31.16;43.24;98794.48;1703417;83;20453;-74
2021/08/02 10:08:44;;;;;;;13.03;7.55;;;;;;;31.20;43.61;98794.44;1696400;83;20975;-69
2021/08/02 10:11:10;;;;;;;13.72;7.10;;;;;;;31.30;43.47;98794.36;1690740;83;20948;-69
2021/08/02 10:13:47;;;;;;;9.35;7.15;;;;;;;31.35;43.28;98813.38;1671797;85;20982;-70
2021/08/02 10:16:16;;;;;;;13.80;8.23;;;;;;;31.38;43.33;98798.64;1663684;86;21020;-70
2021/08/02 10:18:51;;;;;;;10.55;7.67;;;;;;;31.36;43.18;98799.67;1626128;85;21079;-72
2021/08/02 10:21:18;;;;;;;11.03;7.42;;;;;;;31.35;42.60;98814.77;1669284;85;21791;-69
2021/08/02 10:23:47;;;;;;;18.10;8.75;;;;;;;31.35;42.76;98798.09;1672277;85;20971;-70
2021/08/02 10:26:30;;;;;;;17.48;8.50;;;;;;;31.34;42.95;98807.62;1642896;85;21133;-72
2021/08/02 10:28:58;;;;;;;10.85;6.92;;;;;;;31.30;42.92;98809.64;1648106;85;21069;-71
2021/08/02 10:31:26;;;;;;;13.50;7.35;;;;;;;31.28;43.33;98819.58;1647986;85;21023;-70
2021/08/02 10:33:54;;;;;;;10.20;6.45;;;;;;;31.29;42.90;98817.78;1671222;85;21196;-69
2021/08/02 10:36:22;;;;;;;12.75;6.22;;;;;;;31.29;43.20;98863.64;1671969;85;20892;-69
2021/08/02 10:38:51;;;;;;;10.82;7.28;;;;;;;31.25;43.16;98831.52;1672328;85;21016;-70
2021/08/02 10:41:27;;;;;;;6.72;6.12;;;;;;;31.18;43.45;98820.64;1672380;85;21073;-68
2021/08/02 10:43:55;;;;;;;9.53;6.50;;;;;;;31.17;43.70;98823.85;1654178;85;20919;-68
2021/08/02 10:46:25;;;;;;;8.08;6.53;;;;;;;31.15;43.93;98829.80;1658657;85;20955;-69
2021/08/02 10:49:10;;;;;;;16.95;7.53;;;;;;;31.14;44.22;98818.49;1653570;85;20896;-69
2021/08/02 10:51:56;;;;;;;17.00;6.22;;;;;;;31.16;44.31;98834.17;1680807;85;21515;-69
2021/08/02 10:54:24;;;;;;;15.78;6.97;;;;;;;31.19;44.38;98831.16;1681406;85;21023;-70
2021/08/02 10:56:52;;;;;;;12.65;5.55;;;;;;;31.10;44.53;98817.73;1654303;85;20944;-71
2021/08/02 10:59:20;;;;;;;6.58;5.80;;;;;;;31.08;44.82;98829.08;1681491;85;21989;-73
2021/08/02 11:01:53;;;;;;;18.45;7.67;;;;;;;31.10;44.39;98817.73;1679768;85;20943;-73
2021/08/02 11:04:21;;;;;;;9.43;6.20;;;;;;;31.15;44.60;98816.51;1676348;85;21026;-72
2021/08/02 11:06:53;;;;;;;9.15;6.42;;;;;;;31.25;43.62;98836.48;1681277;85;20912;-69
2021/08/02 11:09:31;;;;;;;12.88;6.90;;;;;;;31.26;43.17;98849.18;1677312;85;20940;-69
2021/08/02 11:12:13;;;;;;;31.02;7.12;;;;;;;31.18;43.34;98857.36;1662954;86;21163;-70
2021/08/02 11:14:52;;;;;;;;;;;;;;;31.11;43.50;98827.66;1672980;85;20893;-69
2021/08/02 11:17:27;;;;;;;10.48;4.75;;;;;;;31.09;42.30;98838.97;1681543;84;20115;-68
2021/08/02 11:20:04;;;;;;;11.65;4.45;;;;;;;31.02;40.53;98852.92;1692823;84;21502;-69
2021/08/02 11:22:30;;;;;;;7.95;5.12;;;;;;;31.02;41.33;98834.27;1697343;84;20893;-69
2021/08/02 11:25:00;;;;;;;7.85;4.90;;;;;;;31.09;41.33;98838.38;1688000;83;21502;-70
2021/08/02 11:27:26;;;;;;;10.53;4.50;;;;;;;31.19;40.99;98846.44;1672748;85;21030;-70
2021/08/02 11:29:54;;;;;;;9.00;5.17;;;;;;;31.22;40.73;98893.48;1699908;84;21521;-72
2021/08/02 11:32:22;;;;;;;8.93;4.90;;;;;;;31.16;40.89;98856.40;1662866;85;21048;-75